CYRJ

Roberval Airport

Roberval, Quebec, Canada
METAR CYRJ 212200Z 32011G16KT 40SM FEW040 FEW160 SCT220 06/M09 A3022 RMK SC1AS1CI3 SC TR SLP244
Observed Flight Rules
Apr-21 @ 22:00 UTC (an hour ago) Visual Flight Rules
Wind Visibility Clouds
320° at 11 knots
 Gusting to 16 knots
40 miles
  • Few at 4,000' AGL
  • Few at 16,000' AGL
  • Scattered at 22,000' AGL
Temperatures Readings
Current 6°C / 43°F
Dewpoint -9°C / 16°F
Humidity 34%
Altimeter 30.22" Hg
Pressure 1024.4 hPa
Elevation 179
METAR CYRJ 212200Z 32011G16KT 40SM FEW040 FEW160 SCT220 06/M09 A3022 RMK SC1AS1CI3 SC TR SLP244
Observed Flight Rules
Apr-21 @ 22:00 UTC
(an hour ago)
VFR
Wind Visibility
320° at 11 knots
 Gusting to 16 knots
40 miles
Clouds
  • Few at 4,000' AGL
  • Few at 16,000' AGL
  • Scattered at 22,000' AGL
Temperature Dewpoint
6°C / 43°F -9°C / 16°F
Humidity Altimeter Pressure
34% 30.22" Hg 1024.4 hPa